Whaley Bridge, United Kingdom
Current Conditions -  °F | °C
As of 5:20 AM on Tuesday 27 Jan 2015 (Local Time) from EGCC Reporting Station
Light Rain Light Rain  
Wind Chill: 37°   Ceiling: 1200
Heat Index: 43°   Visibility: 6mi
Dew Point: 41°   Wind: 9mph
Humidity: 93%   Direction: 280°W
Pressure: 30.33"   Gusts: NA
Location:  53.33°N, 1.98°W
Report Text: EGCC 270520Z 28008KT 9999 -RA BKN012 06/05 Q1027 TEMPO BKN008
Loading
Personal Weather Stations






























Interactive Weather Map New forecast layout! Learn more

10-Day Weather Forecast

Advertisements
Track Severe Weather on mobile